Center, Mississippi
Current Conditions -  °F | °C
As of 10:53 AM on Thursday 23 Oct 2014 (Local Time) from KTUP Reporting Station
Clear Clear  
Wind Chill: 57°   Ceiling: Unl
Heat Index: 57°   Visibility: 10mi
Dew Point: 44°   Wind: 3mph
Humidity: 62%   Direction: 120°ESE
Pressure: 30.19"   Gusts: NA
Location:  34.4333°N, 88.8629°W
Report Text: KTUP 231553Z 12003KT 10SM CLR 14/07 A3019 RMK AO2 SLP222 T01390067
Loading
Personal Weather Stations






























Interactive Weather Map
Tropical Storm Tracking
New forecast layout! Learn more

10-Day Weather Forecast

Advertisements
Track Severe Weather on mobile